sensor_id;sensor_type;location;lat;lon;timestamp;pressure;altitude;pressure_sealevel;temperature;humidity
5062;BME280;2351;50.812;12.872;2023-01-31T00:01:52;97954.19;;;0.49;100.00
5062;BME280;2351;50.812;12.872;2023-01-31T00:04:24;97955.09;;;0.48;100.00
5062;BME280;2351;50.812;12.872;2023-01-31T00:06:57;97950.00;;;0.45;100.00
5062;BME280;2351;50.812;12.872;2023-01-31T00:09:29;97959.50;;;0.46;100.00
5062;BME280;2351;50.812;12.872;2023-01-31T00:12:01;97945.84;;;0.41;100.00
5062;BME280;2351;50.812;12.872;2023-01-31T00:14:32;97939.81;;;0.40;100.00
5062;BME280;2351;50.812;12.872;2023-01-31T00:17:04;97940.63;;;0.41;100.00
5062;BME280;2351;50.812;12.872;2023-01-31T00:19:36;97950.16;;;0.42;100.00
5062;BME280;2351;50.812;12.872;2023-01-31T00:22:09;97961.34;;;0.44;100.00
5062;BME280;2351;50.812;12.872;2023-01-31T00:24:41;97970.94;;;0.43;100.00
5062;BME280;2351;50.812;12.872;2023-01-31T00:27:12;97977.66;;;0.48;100.00
5062;BME280;2351;50.812;12.872;2023-01-31T00:29:44;97980.41;;;0.44;100.00
5062;BME280;2351;50.812;12.872;2023-01-31T00:32:16;97997.88;;;0.42;100.00
5062;BME280;2351;50.812;12.872;2023-01-31T00:34:47;98008.81;;;0.30;100.00
5062;BME280;2351;50.812;12.872;2023-01-31T00:37:21;98012.78;;;0.18;100.00
5062;BME280;2351;50.812;12.872;2023-01-31T00:39:52;98012.28;;;0.10;100.00
5062;BME280;2351;50.812;12.872;2023-01-31T00:42:24;98024.44;;;0.09;100.00
5062;BME280;2351;50.812;12.872;2023-01-31T00:44:56;98014.91;;;0.10;100.00
5062;BME280;2351;50.812;12.872;2023-01-31T00:47:28;98020.94;;;0.10;100.00
5062;BME280;2351;50.812;12.872;2023-01-31T00:49:59;98016.38;;;0.16;100.00
5062;BME280;2351;50.812;12.872;2023-01-31T00:52:34;98001.56;;;0.18;100.00
5062;BME280;2351;50.812;12.872;2023-01-31T00:55:06;98009.28;;;0.19;100.00
5062;BME280;2351;50.812;12.872;2023-01-31T00:57:37;98009.28;;;0.19;100.00
5062;BME280;2351;50.812;12.872;2023-01-31T01:00:10;98010.19;;;0.18;100.00
5062;BME280;2351;50.812;12.872;2023-01-31T01:02:42;98022.41;;;0.16;100.00
5062;BME280;2351;50.812;12.872;2023-01-31T01:05:14;98028.53;;;0.15;100.00
5062;BME280;2351;50.812;12.872;2023-01-31T01:07:47;98026.84;;;0.14;100.00
5062;BME280;2351;50.812;12.872;2023-01-31T01:10:19;98029.44;;;0.14;100.00
5062;BME280;2351;50.812;12.872;2023-01-31T01:12:51;98023.34;;;0.15;100.00
5062;BME280;2351;50.812;12.872;2023-01-31T01:15:27;98025.16;;;0.13;100.00
5062;BME280;2351;50.812;12.872;2023-01-31T01:17:59;98031.09;;;0.17;100.00
5062;BME280;2351;50.812;12.872;2023-01-31T01:20:31;98034.66;;;0.14;100.00
5062;BME280;2351;50.812;12.872;2023-01-31T01:23:05;98035.56;;;0.13;100.00
5062;BME280;2351;50.812;12.872;2023-01-31T01:25:42;98030.34;;;0.13;100.00
5062;BME280;2351;50.812;12.872;2023-01-31T01:28:14;98034.66;;;0.14;100.00
5062;BME280;2351;50.812;12.872;2023-01-31T01:30:45;98032.78;;;0.18;100.00
5062;BME280;2351;50.812;12.872;2023-01-31T01:33:33;98042.22;;;0.20;100.00
5062;BME280;2351;50.812;12.872;2023-01-31T01:36:06;98039.59;;;0.20;100.00
5062;BME280;2351;50.812;12.872;2023-01-31T01:38:40;98039.69;;;0.19;100.00
5062;BME280;2351;50.812;12.872;2023-01-31T01:41:12;98032.84;;;0.16;100.00
5062;BME280;2351;50.812;12.872;2023-01-31T01:43:46;98037.13;;;0.17;100.00
5062;BME280;2351;50.812;12.872;2023-01-31T01:46:22;98044.91;;;0.19;100.00
5062;BME280;2351;50.812;12.872;2023-01-31T01:48:59;98041.22;;;0.23;100.00
5062;BME280;2351;50.812;12.872;2023-01-31T01:51:32;98045.69;;;0.21;100.00
5062;BME280;2351;50.812;12.872;2023-01-31T01:54:09;98042.09;;;0.23;100.00
5062;BME280;2351;50.812;12.872;2023-01-31T01:56:45;98043.00;;;0.22;100.00
5062;BME280;2351;50.812;12.872;2023-01-31T01:59:20;98044.03;;;0.18;100.00
5062;BME280;2351;50.812;12.872;2023-01-31T02:01:55;98050.03;;;0.20;100.00
5062;BME280;2351;50.812;12.872;2023-01-31T02:04:31;98059.44;;;0.23;100.00
5062;BME280;2351;50.812;12.872;2023-01-31T02:07:06;98065.41;;;0.26;100.00
5062;BME280;2351;50.812;12.872;2023-01-31T02:09:46;98066.44;;;0.22;100.00
5062;BME280;2351;50.812;12.872;2023-01-31T02:12:19;98073.31;;;0.23;100.00
5062;BME280;2351;50.812;12.872;2023-01-31T02:14:51;98081.94;;;0.25;100.00
5062;BME280;2351;50.812;12.872;2023-01-31T02:17:23;98081.03;;;0.26;100.00
5062;BME280;2351;50.812;12.872;2023-01-31T02:20:14;98100.94;;;0.27;100.00
5062;BME280;2351;50.812;12.872;2023-01-31T02:23:10;98095.84;;;0.24;100.00
5062;BME280;2351;50.812;12.872;2023-01-31T02:26:14;98116.59;;;0.26;100.00
5062;BME280;2351;50.812;12.872;2023-01-31T02:29:12;98109.53;;;0.29;100.00
5062;BME280;2351;50.812;12.872;2023-01-31T02:32:18;98112.72;;;0.36;100.00
5062;BME280;2351;50.812;12.872;2023-01-31T02:35:00;98124.28;;;0.29;100.00
5062;BME280;2351;50.812;12.872;2023-01-31T02:37:39;98103.53;;;0.27;100.00
5062;BME280;2351;50.812;12.872;2023-01-31T02:40:17;98114.00;;;0.26;100.00
5062;BME280;2351;50.812;12.872;2023-01-31T02:42:58;98111.47;;;0.24;100.00
5062;BME280;2351;50.812;12.872;2023-01-31T02:45:40;98122.00;;;0.21;100.00
5062;BME280;2351;50.812;12.872;2023-01-31T02:48:18;98121.31;;;0.18;100.00
5062;BME280;2351;50.812;12.872;2023-01-31T02:50:59;98133.41;;;0.19;100.00
5062;BME280;2351;50.812;12.872;2023-01-31T02:53:37;98138.75;;;0.16;100.00
5062;BME280;2351;50.812;12.872;2023-01-31T02:56:18;98143.16;;;0.13;100.00
5062;BME280;2351;50.812;12.872;2023-01-31T02:58:55;98142.38;;;0.11;100.00
5062;BME280;2351;50.812;12.872;2023-01-31T03:01:31;98151.78;;;0.14;100.00
5062;BME280;2351;50.812;12.872;2023-01-31T03:04:07;98161.56;;;0.09;100.00
5062;BME280;2351;50.812;12.872;2023-01-31T03:06:53;98168.50;;;0.08;100.00
5062;BME280;2351;50.812;12.872;2023-01-31T03:09:36;98175.50;;;0.08;100.00
5062;BME280;2351;50.812;12.872;2023-01-31T03:12:30;98158.19;;;0.07;100.00
5062;BME280;2351;50.812;12.872;2023-01-31T03:15:23;98166.78;;;0.09;100.00
5062;BME280;2351;50.812;12.872;2023-01-31T03:18:22;98172.03;;;0.07;100.00
5062;BME280;2351;50.812;12.872;2023-01-31T03:20:59;98173.69;;;0.10;100.00
5062;BME280;2351;50.812;12.872;2023-01-31T03:23:35;98174.50;;;0.10;100.00
5062;BME280;2351;50.812;12.872;2023-01-31T03:26:09;98178.88;;;0.10;100.00
5062;BME280;2351;50.812;12.872;2023-01-31T03:28:42;98181.50;;;0.10;100.00
5062;BME280;2351;50.812;12.872;2023-01-31T03:31:17;98182.31;;;0.10;100.00
5062;BME280;2351;50.812;12.872;2023-01-31T03:33:51;98185.91;;;0.08;100.00
5062;BME280;2351;50.812;12.872;2023-01-31T03:36:29;98191.13;;;0.08;100.00
5062;BME280;2351;50.812;12.872;2023-01-31T03:39:09;98189.31;;;0.10;100.00
5062;BME280;2351;50.812;12.872;2023-01-31T03:41:50;98205.50;;;0.17;100.00
5062;BME280;2351;50.812;12.872;2023-01-31T03:44:32;98197.81;;;0.13;100.00
5062;BME280;2351;50.812;12.872;2023-01-31T03:47:13;98208.91;;;0.19;100.00
5062;BME280;2351;50.812;12.872;2023-01-31T03:49:48;98208.13;;;0.17;100.00
5062;BME280;2351;50.812;12.872;2023-01-31T03:52:26;98209.50;;;0.25;100.00
5062;BME280;2351;50.812;12.872;2023-01-31T03:55:06;98205.09;;;0.27;100.00
5062;BME280;2351;50.812;12.872;2023-01-31T03:57:39;98205.09;;;0.27;100.00
5062;BME280;2351;50.812;12.872;2023-01-31T04:00:14;98200.78;;;0.26;100.00
5062;BME280;2351;50.812;12.872;2023-01-31T04:02:49;98218.16;;;0.26;100.00
5062;BME280;2351;50.812;12.872;2023-01-31T04:05:24;98216.34;;;0.28;100.00
5062;BME280;2351;50.812;12.872;2023-01-31T04:08:01;98205.00;;;0.29;100.00
5062;BME280;2351;50.812;12.872;2023-01-31T04:10:33;98212.91;;;0.27;100.00
5062;BME280;2351;50.812;12.872;2023-01-31T04:13:04;98210.19;;;0.31;100.00
5062;BME280;2351;50.812;12.872;2023-01-31T04:15:36;98203.88;;;0.36;100.00
5062;BME280;2351;50.812;12.872;2023-01-31T04:18:08;98201.47;;;0.32;100.00
5062;BME280;2351;50.812;12.872;2023-01-31T04:20:39;98206.66;;;0.32;100.00
5062;BME280;2351;50.812;12.872;2023-01-31T04:23:12;98200.66;;;0.29;100.00
5062;BME280;2351;50.812;12.872;2023-01-31T04:25:44;98205.91;;;0.28;100.00
5062;BME280;2351;50.812;12.872;2023-01-31T04:28:16;98202.38;;;0.31;100.00
5062;BME280;2351;50.812;12.872;2023-01-31T04:30:51;98206.72;;;0.30;100.00
5062;BME280;2351;50.812;12.872;2023-01-31T04:33:23;98209.19;;;0.33;100.00
5062;BME280;2351;50.812;12.872;2023-01-31T04:35:54;98207.44;;;0.34;100.00
5062;BME280;2351;50.812;12.872;2023-01-31T04:38:28;98198.06;;;0.29;100.00
5062;BME280;2351;50.812;12.872;2023-01-31T04:40:59;98202.41;;;0.29;100.00
5062;BME280;2351;50.812;12.872;2023-01-31T04:43:31;98194.66;;;0.27;100.00
5062;BME280;2351;50.812;12.872;2023-01-31T04:46:03;98197.28;;;0.27;100.00
5062;BME280;2351;50.812;12.872;2023-01-31T04:48:35;98204.09;;;0.30;100.00
5062;BME280;2351;50.812;12.872;2023-01-31T04:51:08;98210.19;;;0.31;100.00
5062;BME280;2351;50.812;12.872;2023-01-31T04:53:43;98200.78;;;0.26;100.00
5062;BME280;2351;50.812;12.872;2023-01-31T04:56:15;98199.91;;;0.26;100.00
5062;BME280;2351;50.812;12.872;2023-01-31T04:58:46;98191.28;;;0.25;100.00
5062;BME280;2351;50.812;12.872;2023-01-31T05:01:18;98196.59;;;0.22;100.00
5062;BME280;2351;50.812;12.872;2023-01-31T05:03:50;98201.94;;;0.19;100.00
5062;BME280;2351;50.812;12.872;2023-01-31T05:06:22;98210.66;;;0.18;100.00
5062;BME280;2351;50.812;12.872;2023-01-31T05:08:55;98204.41;;;0.22;100.00
5062;BME280;2351;50.812;12.872;2023-01-31T05:11:30;98209.75;;;0.19;100.00
5062;BME280;2351;50.812;12.872;2023-01-31T05:14:02;98197.59;;;0.20;100.00
5062;BME280;2351;50.812;12.872;2023-01-31T05:16:34;98207.03;;;0.22;100.00
5062;BME280;2351;50.812;12.872;2023-01-31T05:19:06;98214.03;;;0.20;100.00
5062;BME280;2351;50.812;12.872;2023-01-31T05:21:37;98225.47;;;0.16;100.00
5062;BME280;2351;50.812;12.872;2023-01-31T05:24:27;98230.66;;;0.18;100.00
5062;BME280;2351;50.812;12.872;2023-01-31T05:27:00;98228.94;;;0.17;100.00
5062;BME280;2351;50.812;12.872;2023-01-31T05:29:32;98243.59;;;0.19;100.00
5062;BME280;2351;50.812;12.872;2023-01-31T05:32:04;98238.50;;;0.16;100.00
5062;BME280;2351;50.812;12.872;2023-01-31T05:34:36;98254.00;;;0.19;100.00
5062;BME280;2351;50.812;12.872;2023-01-31T05:37:08;98241.88;;;0.18;100.00
5062;BME280;2351;50.812;12.872;2023-01-31T05:39:41;98240.06;;;0.20;100.00
5062;BME280;2351;50.812;12.872;2023-01-31T05:42:13;98232.28;;;0.20;100.00
5062;BME280;2351;50.812;12.872;2023-01-31T05:44:45;98229.78;;;0.17;100.00
5062;BME280;2351;50.812;12.872;2023-01-31T05:47:16;98237.88;;;0.09;100.00
5062;BME280;2351;50.812;12.872;2023-01-31T05:49:48;98237.19;;;0.06;100.00
5062;BME280;2351;50.812;12.872;2023-01-31T05:52:20;98235.38;;;0.08;100.00
5062;BME280;2351;50.812;12.872;2023-01-31T05:54:54;98236.25;;;0.07;100.00
5062;BME280;2351;50.812;12.872;2023-01-31T05:57:26;98235.47;;;0.05;100.00
5062;BME280;2351;50.812;12.872;2023-01-31T05:59:58;98238.97;;;0.04;100.00
5062;BME280;2351;50.812;12.872;2023-01-31T06:02:30;98241.34;;;0.10;100.00
5062;BME280;2351;50.812;12.872;2023-01-31T06:05:02;98235.38;;;0.08;100.00
5062;BME280;2351;50.812;12.872;2023-01-31T06:07:34;98235.25;;;0.11;100.00
5062;BME280;2351;50.812;12.872;2023-01-31T06:10:10;98237.66;;;0.16;100.00
5062;BME280;2351;50.812;12.872;2023-01-31T06:12:42;98249.03;;;0.13;100.00
5062;BME280;2351;50.812;12.872;2023-01-31T06:15:14;98243.97;;;0.10;100.00
5062;BME280;2351;50.812;12.872;2023-01-31T06:17:46;98245.69;;;0.09;100.00
5062;BME280;2351;50.812;12.872;2023-01-31T06:20:18;98245.66;;;0.11;100.00
5062;BME280;2351;50.812;12.872;2023-01-31T06:22:49;98250.06;;;0.09;100.00
5062;BME280;2351;50.812;12.872;2023-01-31T06:25:22;98261.13;;;0.14;100.00
5062;BME280;2351;50.812;12.872;2023-01-31T06:27:54;98267.22;;;0.14;100.00
5062;BME280;2351;50.812;12.872;2023-01-31T06:30:26;98255.13;;;0.12;100.00
5062;BME280;2351;50.812;12.872;2023-01-31T06:32:58;98257.75;;;0.12;100.00
5062;BME280;2351;50.812;12.872;2023-01-31T06:35:30;98262.19;;;0.10;100.00
5062;BME280;2351;50.812;12.872;2023-01-31T06:38:03;98263.09;;;0.09;100.00
5062;BME280;2351;50.812;12.872;2023-01-31T06:40:36;98270.81;;;0.10;100.00
5062;BME280;2351;50.812;12.872;2023-01-31T06:43:08;98263.09;;;0.09;100.00
5062;BME280;2351;50.812;12.872;2023-01-31T06:45:41;98262.03;;;0.13;100.00
5062;BME280;2351;50.812;12.872;2023-01-31T06:48:13;98266.47;;;0.11;100.00
5062;BME280;2351;50.812;12.872;2023-01-31T06:50:45;98263.81;;;0.12;100.00
5062;BME280;2351;50.812;12.872;2023-01-31T06:53:17;98268.03;;;0.15;100.00
5062;BME280;2351;50.812;12.872;2023-01-31T06:55:50;98271.50;;;0.16;100.00
5062;BME280;2351;50.812;12.872;2023-01-31T06:58:22;98266.31;;;0.16;100.00
5062;BME280;2351;50.812;12.872;2023-01-31T07:00:53;98275.69;;;0.20;100.00
5062;BME280;2351;50.812;12.872;2023-01-31T07:03:25;98274.81;;;0.19;100.00
5062;BME280;2351;50.812;12.872;2023-01-31T07:05:57;98272.81;;;0.26;100.00
5062;BME280;2351;50.812;12.872;2023-01-31T07:08:29;98267.75;;;0.23;100.00
5062;BME280;2351;50.812;12.872;2023-01-31T07:11:03;98258.25;;;0.22;100.00
5062;BME280;2351;50.812;12.872;2023-01-31T07:13:35;98264.19;;;0.25;100.00
5062;BME280;2351;50.812;12.872;2023-01-31T07:16:07;98266.00;;;0.23;100.00
5062;BME280;2351;50.812;12.872;2023-01-31T07:18:39;98275.19;;;0.32;100.00
5062;BME280;2351;50.812;12.872;2023-01-31T07:21:10;98276.91;;;0.33;100.00
5062;BME280;2351;50.812;12.872;2023-01-31T07:23:42;98275.75;;;0.40;100.00
5062;BME280;2351;50.812;12.872;2023-01-31T07:26:16;98276.38;;;0.47;100.00
5062;BME280;2351;50.812;12.872;2023-01-31T07:28:47;98271.88;;;0.51;100.00
5062;BME280;2351;50.812;12.872;2023-01-31T07:31:19;98283.78;;;0.56;100.00
5062;BME280;2351;50.812;12.872;2023-01-31T07:33:51;98278.22;;;0.66;100.00
5062;BME280;2351;50.812;12.872;2023-01-31T07:36:23;98266.81;;;0.68;100.00
5062;BME280;2351;50.812;12.872;2023-01-31T07:38:57;98267.88;;;0.64;100.00
5062;BME280;2351;50.812;12.872;2023-01-31T07:41:31;98262.34;;;0.72;100.00
5062;BME280;2351;50.812;12.872;2023-01-31T07:44:03;98272.91;;;0.69;100.00
5062;BME280;2351;50.812;12.872;2023-01-31T07:46:39;98279.72;;;0.71;100.00
5062;BME280;2351;50.812;12.872;2023-01-31T07:49:11;98284.78;;;0.76;100.00
5062;BME280;2351;50.812;12.872;2023-01-31T07:51:43;98285.69;;;0.75;100.00
5062;BME280;2351;50.812;12.872;2023-01-31T07:54:15;98277.88;;;0.75;100.00
5062;BME280;2351;50.812;12.872;2023-01-31T07:56:48;98282.09;;;0.78;100.00
5062;BME280;2351;50.812;12.872;2023-01-31T07:59:19;98282.94;;;0.78;100.00
5062;BME280;2351;50.812;12.872;2023-01-31T08:01:51;98286.94;;;0.87;100.00
5062;BME280;2351;50.812;12.872;2023-01-31T08:04:40;98279.16;;;0.85;99.21
5062;BME280;2351;50.812;12.872;2023-01-31T08:07:11;98280.97;;;0.83;98.05
5062;BME280;2351;50.812;12.872;2023-01-31T08:09:43;98280.03;;;0.86;98.68
5062;BME280;2351;50.812;12.872;2023-01-31T08:12:20;98292.16;;;0.87;98.22
5062;BME280;2351;50.812;12.872;2023-01-31T08:14:52;98282.47;;;0.89;97.73
5062;BME280;2351;50.812;12.872;2023-01-31T08:17:23;98286.16;;;0.85;97.69
5062;BME280;2351;50.812;12.872;2023-01-31T08:19:55;98284.91;;;0.94;97.76
5062;BME280;2351;50.812;12.872;2023-01-31T08:22:27;98296.00;;;0.99;98.01
5062;BME280;2351;50.812;12.872;2023-01-31T08:24:58;98289.50;;;1.30;99.12
5062;BME280;2351;50.812;12.872;2023-01-31T08:27:31;98283.75;;;1.42;97.16
5062;BME280;2351;50.812;12.872;2023-01-31T08:30:04;98291.19;;;1.31;95.84
5062;BME280;2351;50.812;12.872;2023-01-31T08:32:36;98291.44;;;1.25;96.23
5062;BME280;2351;50.812;12.872;2023-01-31T08:35:08;98296.34;;;1.32;96.49
5062;BME280;2351;50.812;12.872;2023-01-31T08:37:40;98290.69;;;1.43;97.06
5062;BME280;2351;50.812;12.872;2023-01-31T08:40:12;98298.19;;;1.70;97.76
5062;BME280;2351;50.812;12.872;2023-01-31T08:42:52;98295.22;;;1.99;97.06
5062;BME280;2351;50.812;12.872;2023-01-31T08:45:24;98281.97;;;2.02;95.35
5062;BME280;2351;50.812;12.872;2023-01-31T08:47:57;98285.03;;;2.11;94.09
5062;BME280;2351;50.812;12.872;2023-01-31T08:50:30;98283.03;;;2.17;93.62
5062;BME280;2351;50.812;12.872;2023-01-31T08:53:03;98284.59;;;2.21;93.25
5062;BME280;2351;50.812;12.872;2023-01-31T08:55:36;98275.44;;;2.12;91.44
5062;BME280;2351;50.812;12.872;2023-01-31T08:58:09;98281.41;;;2.33;93.63
5062;BME280;2351;50.812;12.872;2023-01-31T09:00:40;98279.56;;;2.54;93.09
5062;BME280;2351;50.812;12.872;2023-01-31T09:03:13;98284.63;;;2.58;89.92
5062;BME280;2351;50.812;12.872;2023-01-31T09:05:47;98269.50;;;2.99;93.55
5062;BME280;2351;50.812;12.872;2023-01-31T09:08:19;98260.13;;;3.98;95.39
5062;BME280;2351;50.812;12.872;2023-01-31T09:10:50;98260.22;;;4.44;88.87
5062;BME280;2351;50.812;12.872;2023-01-31T09:13:24;98254.44;;;4.53;86.40
5062;BME280;2351;50.812;12.872;2023-01-31T09:15:56;98255.88;;;4.11;78.51
5062;BME280;2351;50.812;12.872;2023-01-31T09:18:28;98262.84;;;3.63;78.70
5062;BME280;2351;50.812;12.872;2023-01-31T09:21:03;98261.13;;;3.28;79.29
5062;BME280;2351;50.812;12.872;2023-01-31T09:23:35;98263.00;;;3.08;79.90
5062;BME280;2351;50.812;12.872;2023-01-31T09:26:08;98251.06;;;2.85;80.40
5062;BME280;2351;50.812;12.872;2023-01-31T09:28:41;98254.44;;;2.69;80.73
5062;BME280;2351;50.812;12.872;2023-01-31T09:31:15;98248.34;;;2.51;81.70
5062;BME280;2351;50.812;12.872;2023-01-31T09:33:47;98246.88;;;2.46;82.73
5062;BME280;2351;50.812;12.872;2023-01-31T09:36:20;98250.06;;;2.33;82.73
5062;BME280;2351;50.812;12.872;2023-01-31T09:38:53;98250.22;;;2.30;83.49
5062;BME280;2351;50.812;12.872;2023-01-31T09:41:29;98236.94;;;2.16;83.54
5062;BME280;2351;50.812;12.872;2023-01-31T09:44:09;98226.81;;;2.09;84.37
5062;BME280;2351;50.812;12.872;2023-01-31T09:46:46;98237.25;;;2.09;84.60
5062;BME280;2351;50.812;12.872;2023-01-31T09:49:22;98235.25;;;2.15;85.15
5062;BME280;2351;50.812;12.872;2023-01-31T09:51:58;98230.03;;;2.15;84.90
5062;BME280;2351;50.812;12.872;2023-01-31T09:54:32;98235.34;;;2.13;85.09
5062;BME280;2351;50.812;12.872;2023-01-31T09:57:16;98230.47;;;2.05;85.00
5062;BME280;2351;50.812;12.872;2023-01-31T10:00:01;98233.00;;;2.07;85.26
5062;BME280;2351;50.812;12.872;2023-01-31T10:03:01;98224.41;;;2.05;85.72
5062;BME280;2351;50.812;12.872;2023-01-31T10:05:38;98224.34;;;2.06;85.20
5062;BME280;2351;50.812;12.872;2023-01-31T10:08:18;98212.81;;;2.10;85.44
5062;BME280;2351;50.812;12.872;2023-01-31T10:10:56;98224.13;;;2.11;85.78
5062;BME280;2351;50.812;12.872;2023-01-31T10:13:32;98217.91;;;2.14;85.62
5062;BME280;2351;50.812;12.872;2023-01-31T10:16:13;98213.59;;;2.13;85.03
5062;BME280;2351;50.812;12.872;2023-01-31T10:18:54;98202.16;;;2.15;85.55
5062;BME280;2351;50.812;12.872;2023-01-31T10:21:32;98203.91;;;2.15;84.79
5062;BME280;2351;50.812;12.872;2023-01-31T10:24:12;98191.50;;;2.20;85.00
5062;BME280;2351;50.812;12.872;2023-01-31T10:26:47;98197.13;;;2.30;84.93
5062;BME280;2351;50.812;12.872;2023-01-31T10:29:25;98189.97;;;2.33;84.75
5062;BME280;2351;50.812;12.872;2023-01-31T10:32:02;98178.31;;;2.40;84.43
5062;BME280;2351;50.812;12.872;2023-01-31T10:34:39;98175.47;;;2.45;84.36
5062;BME280;2351;50.812;12.872;2023-01-31T10:37:15;98167.41;;;2.50;84.74
5062;BME280;2351;50.812;12.872;2023-01-31T10:39:53;98179.09;;;2.60;84.19
5062;BME280;2351;50.812;12.872;2023-01-31T10:42:29;98173.25;;;2.73;83.42
5062;BME280;2351;50.812;12.872;2023-01-31T10:45:10;98170.00;;;2.85;83.13
5062;BME280;2351;50.812;12.872;2023-01-31T10:47:49;98175.47;;;2.98;83.04
5062;BME280;2351;50.812;12.872;2023-01-31T10:50:28;98169.22;;;3.00;81.59
5062;BME280;2351;50.812;12.872;2023-01-31T10:53:12;98167.31;;;3.04;81.18
5062;BME280;2351;50.812;12.872;2023-01-31T10:55:54;98159.97;;;3.11;81.30
5062;BME280;2351;50.812;12.872;2023-01-31T10:58:30;98148.88;;;3.23;81.18
5062;BME280;2351;50.812;12.872;2023-01-31T11:01:02;98143.31;;;3.29;81.21
5062;BME280;2351;50.812;12.872;2023-01-31T11:03:48;98138.94;;;3.30;80.23
5062;BME280;2351;50.812;12.872;2023-01-31T11:06:22;98137.56;;;3.23;79.89
5062;BME280;2351;50.812;12.872;2023-01-31T11:08:56;98141.94;;;3.06;80.47
5062;BME280;2351;50.812;12.872;2023-01-31T11:11:29;98144.19;;;2.96;80.52
5062;BME280;2351;50.812;12.872;2023-01-31T11:14:02;98128.03;;;2.88;81.08
5062;BME280;2351;50.812;12.872;2023-01-31T11:16:36;98132.94;;;2.77;81.68
5062;BME280;2351;50.812;12.872;2023-01-31T11:19:17;98116.91;;;2.67;81.74
5062;BME280;2351;50.812;12.872;2023-01-31T11:21:53;98102.31;;;2.63;82.14
5062;BME280;2351;50.812;12.872;2023-01-31T11:24:27;98107.00;;;2.56;82.79
5062;BME280;2351;50.812;12.872;2023-01-31T11:27:03;98104.56;;;2.53;83.48
5062;BME280;2351;50.812;12.872;2023-01-31T11:29:39;98105.63;;;2.49;84.22
5062;BME280;2351;50.812;12.872;2023-01-31T11:32:17;98108.09;;;2.52;84.60
5062;BME280;2351;50.812;12.872;2023-01-31T11:34:58;98099.47;;;2.50;84.72
5062;BME280;2351;50.812;12.872;2023-01-31T11:37:31;98099.78;;;2.44;85.17
5062;BME280;2351;50.812;12.872;2023-01-31T11:40:18;98096.50;;;2.40;85.60
5062;BME280;2351;50.812;12.872;2023-01-31T11:42:52;98089.09;;;2.31;86.70
5062;BME280;2351;50.812;12.872;2023-01-31T11:45:25;98099.41;;;2.34;86.83
5062;BME280;2351;50.812;12.872;2023-01-31T11:48:04;98074.97;;;2.35;86.73
5062;BME280;2351;50.812;12.872;2023-01-31T11:50:40;98062.34;;;2.43;87.76
5062;BME280;2351;50.812;12.872;2023-01-31T11:53:15;98036.94;;;2.47;87.80
5062;BME280;2351;50.812;12.872;2023-01-31T11:55:50;98046.38;;;2.49;87.41
5062;BME280;2351;50.812;12.872;2023-01-31T11:58:29;98058.34;;;2.53;88.15
5062;BME280;2351;50.812;12.872;2023-01-31T12:01:06;98053.94;;;2.54;88.06
5062;BME280;2351;50.812;12.872;2023-01-31T12:03:44;98054.03;;;2.52;87.89
5062;BME280;2351;50.812;12.872;2023-01-31T12:06:27;98059.53;;;2.48;88.09
5062;BME280;2351;50.812;12.872;2023-01-31T12:09:00;98063.06;;;2.47;87.79
5062;BME280;2351;50.812;12.872;2023-01-31T12:11:34;98062.84;;;2.34;87.89
5062;BME280;2351;50.812;12.872;2023-01-31T12:14:12;98057.53;;;2.18;89.67
5062;BME280;2351;50.812;12.872;2023-01-31T12:16:46;98052.53;;;2.13;89.91
5062;BME280;2351;50.812;12.872;2023-01-31T12:19:27;98041.47;;;2.08;90.36
5062;BME280;2351;50.812;12.872;2023-01-31T12:22:08;98035.47;;;2.06;90.21
5062;BME280;2351;50.812;12.872;2023-01-31T12:24:50;98025.13;;;2.04;90.60
5062;BME280;2351;50.812;12.872;2023-01-31T12:27:38;98021.91;;;1.99;91.22
5062;BME280;2351;50.812;12.872;2023-01-31T12:30:24;98022.97;;;1.95;92.14
5062;BME280;2351;50.812;12.872;2023-01-31T12:33:12;98008.38;;;1.91;92.48
5062;BME280;2351;50.812;12.872;2023-01-31T12:35:56;97991.50;;;1.80;93.55
5062;BME280;2351;50.812;12.872;2023-01-31T12:38:43;97984.34;;;1.67;94.97
5062;BME280;2351;50.812;12.872;2023-01-31T12:41:27;97976.75;;;1.62;95.72
5062;BME280;2351;50.812;12.872;2023-01-31T12:44:14;97965.81;;;1.54;97.23
5062;BME280;2351;50.812;12.872;2023-01-31T12:46:59;97958.09;;;1.52;97.93
5062;BME280;2351;50.812;12.872;2023-01-31T12:49:58;97958.44;;;1.44;99.20
5062;BME280;2351;50.812;12.872;2023-01-31T12:52:39;97971.94;;;1.35;99.47
5062;BME280;2351;50.812;12.872;2023-01-31T12:55:23;97970.75;;;1.23;100.00
5062;BME280;2351;50.812;12.872;2023-01-31T12:58:10;97953.31;;;1.06;100.00
5062;BME280;2351;50.812;12.872;2023-01-31T13:00:51;97946.06;;;0.94;100.00
5062;BME280;2351;50.812;12.872;2023-01-31T13:03:36;97936.56;;;0.93;100.00
5062;BME280;2351;50.812;12.872;2023-01-31T13:06:12;97924.38;;;0.93;100.00
5062;BME280;2351;50.812;12.872;2023-01-31T13:08:52;97911.97;;;0.98;100.00
5062;BME280;2351;50.812;12.872;2023-01-31T13:11:30;97905.00;;;0.99;100.00
5062;BME280;2351;50.812;12.872;2023-01-31T13:14:05;97900.53;;;1.01;100.00
5062;BME280;2351;50.812;12.872;2023-01-31T13:16:41;97908.84;;;1.09;100.00
5062;BME280;2351;50.812;12.872;2023-01-31T13:19:32;97904.41;;;1.11;100.00
5062;BME280;2351;50.812;12.872;2023-01-31T13:22:12;97888.47;;;1.17;100.00
5062;BME280;2351;50.812;12.872;2023-01-31T13:24:48;97894.59;;;1.16;100.00
5062;BME280;2351;50.812;12.872;2023-01-31T13:27:26;97891.00;;;1.19;100.00
5062;BME280;2351;50.812;12.872;2023-01-31T13:30:03;97881.09;;;1.26;100.00
5062;BME280;2351;50.812;12.872;2023-01-31T13:32:40;97876.75;;;1.26;100.00
5062;BME280;2351;50.812;12.872;2023-01-31T13:35:17;97871.69;;;1.23;100.00
5062;BME280;2351;50.812;12.872;2023-01-31T13:37:55;97861.78;;;1.12;100.00
5062;BME280;2351;50.812;12.872;2023-01-31T13:40:31;97860.09;;;1.11;100.00
5062;BME280;2351;50.812;12.872;2023-01-31T13:43:12;97853.88;;;1.14;100.00
5062;BME280;2351;50.812;12.872;2023-01-31T13:45:47;97863.47;;;1.13;100.00
5062;BME280;2351;50.812;12.872;2023-01-31T13:48:25;97849.66;;;1.11;100.00
5062;BME280;2351;50.812;12.872;2023-01-31T13:51:01;97863.06;;;1.03;100.00
5062;BME280;2351;50.812;12.872;2023-01-31T13:53:35;97851.94;;;1.00;100.00
5062;BME280;2351;50.812;12.872;2023-01-31T13:56:09;97841.50;;;1.00;100.00
5062;BME280;2351;50.812;12.872;2023-01-31T13:58:47;97832.94;;;0.98;100.00
5062;BME280;2351;50.812;12.872;2023-01-31T14:01:22;97835.56;;;0.98;100.00